Time;durP1;ratioP1;P1;durP2;ratioP2;P2;SDS_P1;SDS_P2;PMS_P1;PMS_P2;Temp;Humidity;BMP_temperature;BMP_pressure;BME280_temperature;BME280_humidity;BME280_pressure;Samples;Min_cycle;Max_cycle;Signal;HPM_P1;HPM_P2
2023/05/21 00:00:23;;;;;;;;;;;;;;;13.59;82.69;94975.13;5074749;28;1033;-54
2023/05/21 00:02:50;;;;;;;;;;;;;;;13.78;82.32;94989.88;5074923;28;1045;-54
2023/05/21 00:05:17;;;;;;;;;;;;;;;13.74;81.26;94984.03;5074648;28;966;-54
2023/05/21 00:07:43;;;;;;;;;;;;;;;13.58;81.77;94985.03;5074748;28;1021;-53
2023/05/21 00:10:09;;;;;;;;;;;;;;;13.72;80.90;94993.28;5074581;28;1598;-54
2023/05/21 00:12:36;;;;;;;;;;;;;;;13.70;82.14;94982.72;5074540;28;978;-55
2023/05/21 00:15:02;;;;;;;;;;;;;;;13.46;83.46;94992.69;5074344;28;2028;-55
2023/05/21 00:17:28;;;;;;;;;;;;;;;13.24;83.92;94969.38;5074140;28;1914;-54
2023/05/21 00:19:55;;;;;;;;;;;;;;;13.37;84.04;94985.72;5074386;28;959;-54
2023/05/21 00:22:22;;;;;;;;;;;;;;;13.68;82.31;94979.41;5074400;28;986;-54
2023/05/21 00:24:48;;;;;;;;;;;;;;;13.90;81.83;94980.31;5074366;28;1028;-55
2023/05/21 00:27:14;;;;;;;;;;;;;;;14.18;79.44;94988.53;5073963;28;1096;-55
2023/05/21 00:29:40;;;;;;;;;;;;;;;14.60;77.01;94995.06;5073990;28;1092;-55
2023/05/21 00:32:06;;;;;;;;;;;;;;;14.81;75.61;94983.50;5073941;28;1093;-55
2023/05/21 00:34:32;;;;;;;;;;;;;;;15.00;74.66;94991.97;5073873;28;1883;-55
2023/05/21 00:37:01;;;;;;;;;;;;;;;15.15;74.33;94986.50;5074095;28;1989;-55
2023/05/21 00:39:27;;;;;;;;;;;;;;;15.18;74.69;94986.13;5073747;28;1046;-55
2023/05/21 00:41:55;;;;;;;;;;;;;;;15.20;75.27;94986.78;5073690;28;1046;-55
2023/05/21 00:44:22;;;;;;;;;;;;;;;14.99;76.27;94982.25;5073611;28;1242;-55
2023/05/21 00:46:52;;;;;;;;;;;;;;;14.77;77.88;94989.47;5073983;28;1017;-55
2023/05/21 00:49:21;;;;;;;;;;;;;;;14.67;77.50;94986.25;5073897;28;1001;-55
2023/05/21 00:51:47;;;;;;;;;;;;;;;14.69;77.24;94976.13;5073952;28;1033;-55
2023/05/21 00:54:13;;;;;;;;;;;;;;;14.86;76.70;94979.41;5073610;28;1052;-55
2023/05/21 00:56:40;;;;;;;;;;;;;;;14.91;76.38;94983.19;5073712;28;1914;-55
2023/05/21 00:59:06;;;;;;;;;;;;;;;14.55;77.09;94978.66;5073843;28;1011;-55
2023/05/21 01:01:35;;;;;;;;;;;;;;;14.51;77.71;94971.97;5073058;28;1041;-55
2023/05/21 01:04:01;;;;;;;;;;;;;;;14.56;78.93;94960.66;5073827;28;966;-54
2023/05/21 01:06:27;;;;;;;;;;;;;;;14.76;76.63;94963.56;5073439;28;1132;-55
2023/05/21 01:08:57;;;;;;;;;;;;;;;14.87;77.00;94970.31;5073669;28;1641;-55
2023/05/21 01:11:39;;;;;;;;;;;;;;;14.43;78.01;94969.41;5073188;28;1056;-55
2023/05/21 01:14:09;;;;;;;;;;;;;;;14.18;78.97;94961.66;5073322;28;1042;-55
2023/05/21 01:16:36;;;;;;;;;;;;;;;14.15;80.07;94955.81;5073570;28;1053;-55
2023/05/21 01:19:04;;;;;;;;;;;;;;;14.08;79.99;94950.38;5073338;28;1911;-55
2023/05/21 01:21:34;;;;;;;;;;;;;;;13.99;80.65;94951.50;5073250;28;1023;-54
2023/05/21 01:24:01;;;;;;;;;;;;;;;13.81;81.01;94949.16;5073210;28;1034;-55
2023/05/21 01:26:27;;;;;;;;;;;;;;;13.87;80.94;94951.13;5073408;28;1025;-55
2023/05/21 01:28:53;;;;;;;;;;;;;;;13.90;80.43;94948.06;5073399;28;1092;-55
2023/05/21 01:31:27;;;;;;;;;;;;;;;13.75;80.58;94945.38;5073420;28;986;-55
2023/05/21 01:33:55;;;;;;;;;;;;;;;13.65;82.28;94948.34;5073198;28;1634;-55
2023/05/21 01:36:25;;;;;;;;;;;;;;;13.52;83.08;94948.16;5073030;28;1197;-55
2023/05/21 01:39:17;;;;;;;;;;;;;;;13.60;82.16;94949.91;5073067;28;1914;-54
2023/05/21 01:41:44;;;;;;;;;;;;;;;13.63;82.40;94938.81;5068668;28;1297;-55
2023/05/21 01:44:11;;;;;;;;;;;;;;;13.57;82.40;94932.31;5072951;28;1266;-55
2023/05/21 01:46:37;;;;;;;;;;;;;;;13.39;83.70;94939.91;5073386;28;1063;-54
2023/05/21 01:49:05;;;;;;;;;;;;;;;13.13;84.41;94932.22;5073019;28;1038;-55
2023/05/21 01:51:31;;;;;;;;;;;;;;;13.02;85.06;94926.28;5072944;28;1495;-54
2023/05/21 01:53:57;;;;;;;;;;;;;;;12.88;85.05;94932.44;5072957;28;1291;-54
2023/05/21 01:56:24;;;;;;;;;;;;;;;12.88;85.33;94933.31;5072882;28;966;-54
2023/05/21 01:58:51;;;;;;;;;;;;;;;12.89;86.29;94934.13;5073189;28;1906;-55
2023/05/21 02:01:17;;;;;;;;;;;;;;;12.79;86.34;94933.56;5072897;28;966;-54
2023/05/21 02:03:43;;;;;;;;;;;;;;;12.92;85.36;94938.28;5073112;28;970;-54
2023/05/21 02:06:09;;;;;;;;;;;;;;;13.07;84.97;94940.00;5073138;28;1028;-55
2023/05/21 02:08:35;;;;;;;;;;;;;;;13.09;84.96;94929.09;5072693;28;1550;-54
2023/05/21 02:11:01;;;;;;;;;;;;;;;13.13;85.20;94921.50;5072711;28;1026;-54
2023/05/21 02:13:28;;;;;;;;;;;;;;;13.15;85.64;94912.25;5075804;28;1047;-55
2023/05/21 02:15:54;;;;;;;;;;;;;;;13.02;85.17;94912.88;5076611;28;921;-55
2023/05/21 02:18:20;;;;;;;;;;;;;;;13.00;86.05;94916.78;5076684;28;1910;-55
2023/05/21 02:20:47;;;;;;;;;;;;;;;13.28;84.50;94919.69;5076501;28;1070;-54
2023/05/21 02:23:13;;;;;;;;;;;;;;;13.66;82.10;94915.09;5076719;28;1001;-55
2023/05/21 02:25:39;;;;;;;;;;;;;;;13.94;80.21;94917.09;5076626;28;1310;-55
2023/05/21 02:28:05;;;;;;;;;;;;;;;14.20;78.67;94916.59;5076660;28;1060;-55
2023/05/21 02:30:31;;;;;;;;;;;;;;;14.34;78.03;94914.03;5076556;28;1199;-55
2023/05/21 02:32:58;;;;;;;;;;;;;;;14.41;78.38;94917.66;5076206;28;2006;-55
2023/05/21 02:35:24;;;;;;;;;;;;;;;14.35;77.71;94926.47;5076453;28;1001;-55
2023/05/21 02:37:50;;;;;;;;;;;;;;;13.90;79.15;94913.13;5076110;28;1984;-55
2023/05/21 02:40:16;;;;;;;;;;;;;;;13.62;80.84;94921.00;5076124;28;965;-55
2023/05/21 02:42:42;;;;;;;;;;;;;;;13.32;82.68;94918.34;5076038;28;1169;-55
2023/05/21 02:45:09;;;;;;;;;;;;;;;13.18;83.54;94911.88;5076160;28;974;-55
2023/05/21 02:47:37;;;;;;;;;;;;;;;13.26;84.14;94917.19;5076277;28;977;-55
2023/05/21 02:50:04;;;;;;;;;;;;;;;13.10;83.90;94911.97;5076310;28;1052;-55
2023/05/21 02:52:30;;;;;;;;;;;;;;;13.05;84.21;94917.88;5076191;28;1020;-55
2023/05/21 02:54:56;;;;;;;;;;;;;;;13.00;84.46;94914.91;5076149;28;973;-55
2023/05/21 02:57:22;;;;;;;;;;;;;;;13.24;83.75;94921.03;5076068;28;1899;-55
2023/05/21 02:59:48;;;;;;;;;;;;;;;13.62;81.40;94912.94;5076134;28;1040;-55
2023/05/21 03:02:15;;;;;;;;;;;;;;;14.01;79.41;94918.00;5075936;28;1231;-55
2023/05/21 03:04:44;;;;;;;;;;;;;;;14.21;78.46;94926.34;5075816;28;930;-55
2023/05/21 03:07:14;;;;;;;;;;;;;;;14.44;77.72;94922.66;5075912;28;993;-55
2023/05/21 03:09:40;;;;;;;;;;;;;;;14.51;78.01;94934.28;5075450;28;1601;-55
2023/05/21 03:12:07;;;;;;;;;;;;;;;14.43;77.46;94926.34;5075870;28;1053;-55
2023/05/21 03:14:34;;;;;;;;;;;;;;;14.60;76.90;94930.50;5075762;28;995;-55
2023/05/21 03:17:02;;;;;;;;;;;;;;;14.73;76.32;94923.59;5075443;28;1990;-55
2023/05/21 03:19:29;;;;;;;;;;;;;;;14.75;76.12;94924.22;5075544;28;1028;-54
2023/05/21 03:21:55;;;;;;;;;;;;;;;14.89;75.24;94915.28;5075432;28;928;-54
2023/05/21 03:24:21;;;;;;;;;;;;;;;14.99;74.79;94920.31;5074945;28;993;-55
2023/05/21 03:26:49;;;;;;;;;;;;;;;15.07;74.69;94919.34;5075381;28;1169;-55
2023/05/21 03:29:15;;;;;;;;;;;;;;;15.12;74.14;94931.19;5075159;28;1557;-54
2023/05/21 03:31:41;;;;;;;;;;;;;;;15.19;73.95;94921.28;5075530;28;1148;-55
2023/05/21 03:34:07;;;;;;;;;;;;;;;15.33;73.41;94916.03;5075146;28;1050;-55
2023/05/21 03:36:33;;;;;;;;;;;;;;;15.37;73.67;94920.81;5075381;28;1001;-54
2023/05/21 03:38:59;;;;;;;;;;;;;;;15.50;73.21;94922.78;5074963;28;1898;-54
2023/05/21 03:41:25;;;;;;;;;;;;;;;15.61;72.58;94921.38;5074980;28;1101;-54
2023/05/21 03:43:51;;;;;;;;;;;;;;;15.75;72.00;94917.78;5074822;28;1112;-55
2023/05/21 03:46:17;;;;;;;;;;;;;;;15.88;71.76;94925.09;5072877;28;1998;-55
2023/05/21 03:48:44;;;;;;;;;;;;;;;15.93;71.72;94921.81;5070117;28;1026;-55
2023/05/21 03:51:12;;;;;;;;;;;;;;;15.98;71.62;94920.16;5054868;28;1048;-55
2023/05/21 03:53:38;;;;;;;;;;;;;;;16.22;70.96;94930.63;5054703;28;1285;-55
2023/05/21 03:56:04;;;;;;;;;;;;;;;16.25;70.85;94919.47;5054719;28;2038;-55
2023/05/21 03:58:30;;;;;;;;;;;;;;;16.27;70.64;94917.38;5054465;28;1914;-55
2023/05/21 04:00:56;;;;;;;;;;;;;;;16.22;70.35;94912.63;5058740;28;1002;-54
2023/05/21 04:03:22;;;;;;;;;;;;;;;16.24;70.31;94923.16;5060793;28;1085;-55
2023/05/21 04:05:48;;;;;;;;;;;;;;;16.37;70.15;94923.22;5054605;28;1571;-55
2023/05/21 04:08:14;;;;;;;;;;;;;;;16.62;69.21;94919.97;5055636;28;1375;-55
2023/05/21 04:10:40;;;;;;;;;;;;;;;16.71;69.86;94924.16;5074413;28;1033;-55
2023/05/21 04:13:06;;;;;;;;;;;;;;;16.79;68.83;94921.28;5074615;28;1028;-55
2023/05/21 04:15:34;;;;;;;;;;;;;;;17.02;67.64;94920.09;5074239;28;1271;-55
2023/05/21 04:18:00;;;;;;;;;;;;;;;16.96;69.62;94916.34;5074435;28;1906;-54
2023/05/21 04:20:26;;;;;;;;;;;;;;;16.79;69.12;94937.47;5074152;28;1102;-54
2023/05/21 04:22:52;;;;;;;;;;;;;;;16.63;68.80;94927.03;5058375;28;1033;-55
2023/05/21 04:25:19;;;;;;;;;;;;;;;16.75;69.87;94926.25;5054283;28;1010;-55
2023/05/21 04:27:46;;;;;;;;;;;;;;;17.02;68.91;94925.50;5054153;28;1025;-54
2023/05/21 04:30:12;;;;;;;;;;;;;;;17.27;66.90;94923.81;5054053;28;1073;-54
2023/05/21 04:32:38;;;;;;;;;;;;;;;17.54;67.01;94930.03;5054312;28;970;-54
2023/05/21 04:35:04;;;;;;;;;;;;;;;17.58;65.64;94930.44;5053526;28;985;-54
2023/05/21 04:37:33;;;;;;;;;;;;;;;17.58;66.05;94929.63;5053842;28;1997;-54
2023/05/21 04:40:00;;;;;;;;;;;;;;;17.44;66.41;94912.59;5053934;28;1037;-55
2023/05/21 04:42:26;;;;;;;;;;;;;;;17.47;65.58;94920.25;5067312;28;1013;-55
2023/05/21 04:44:54;;;;;;;;;;;;;;;17.37;66.56;94926.91;5073663;28;1084;-55
2023/05/21 04:47:20;;;;;;;;;;;;;;;17.26;67.00;94919.44;5073640;28;1171;-55
2023/05/21 04:49:46;;;;;;;;;;;;;;;17.23;67.54;94921.75;5073644;28;1980;-55
2023/05/21 04:52:12;;;;;;;;;;;;;;;17.17;66.64;94926.13;5073563;28;1034;-55
2023/05/21 04:54:40;;;;;;;;;;;;;;;17.15;66.87;94922.78;5073629;28;1001;-55
2023/05/21 04:57:07;;;;;;;;;;;;;;;17.22;66.99;94926.31;5073452;28;1905;-55
2023/05/21 04:59:33;;;;;;;;;;;;;;;17.18;68.73;94922.34;5073720;28;1112;-55
2023/05/21 05:02:00;;;;;;;;;;;;;;;17.15;67.86;94920.09;5073433;28;1057;-55
2023/05/21 05:04:26;;;;;;;;;;;;;;;17.09;67.20;94921.75;5073429;28;1098;-56
2023/05/21 05:06:52;;;;;;;;;;;;;;;17.07;69.31;94917.56;5073433;28;1045;-55
2023/05/21 05:09:20;;;;;;;;;;;;;;;17.05;69.14;94930.47;5073295;28;1683;-55
2023/05/21 05:11:46;;;;;;;;;;;;;;;17.10;68.22;94927.97;5073277;28;1601;-55
2023/05/21 05:14:12;;;;;;;;;;;;;;;17.29;67.95;94915.50;5073527;28;1040;-55
2023/05/21 05:16:38;;;;;;;;;;;;;;;17.28;68.12;94928.19;5073283;28;1073;-55
2023/05/21 05:19:04;;;;;;;;;;;;;;;17.46;67.05;94929.44;5055269;28;1930;-56
2023/05/21 05:21:32;;;;;;;;;;;;;;;17.62;67.37;94918.16;5073363;28;1020;-56
2023/05/21 05:23:58;;;;;;;;;;;;;;;17.60;65.56;94931.06;5073269;28;1039;-56
2023/05/21 05:26:24;;;;;;;;;;;;;;;17.62;67.00;94926.28;5073369;28;966;-56
2023/05/21 05:28:51;;;;;;;;;;;;;;;17.63;67.24;94925.25;5073530;28;1001;-56
2023/05/21 05:31:17;;;;;;;;;;;;;;;17.70;66.91;94919.81;5073408;28;1045;-56
2023/05/21 05:33:43;;;;;;;;;;;;;;;17.81;66.17;94921.88;5073461;28;1039;-56
2023/05/21 05:36:09;;;;;;;;;;;;;;;18.06;64.91;94927.47;5073127;28;1054;-56
2023/05/21 05:38:35;;;;;;;;;;;;;;;18.80;65.02;94933.41;5072920;28;1914;-56
2023/05/21 05:41:01;;;;;;;;;;;;;;;19.42;62.13;94935.47;5073300;28;1101;-56
2023/05/21 05:43:27;;;;;;;;;;;;;;;19.73;60.73;94931.88;5072965;28;1096;-56
2023/05/21 05:45:53;;;;;;;;;;;;;;;19.60;58.56;94921.97;5073582;28;1050;-56
2023/05/21 05:48:19;;;;;;;;;;;;;;;19.16;60.55;94923.78;5077078;28;1026;-55
2023/05/21 05:50:46;;;;;;;;;;;;;;;18.82;62.82;94925.91;5077224;28;1132;-55
2023/05/21 05:53:13;;;;;;;;;;;;;;;18.70;63.01;94922.19;5059062;28;1094;-56
2023/05/21 05:55:39;;;;;;;;;;;;;;;18.45;63.41;94913.97;5077004;28;1059;-56
2023/05/21 05:58:06;;;;;;;;;;;;;;;18.38;64.93;94919.41;5077141;28;2000;-56
2023/05/21 06:00:32;;;;;;;;;;;;;;;18.42;64.42;94919.81;5077074;28;1007;-56
2023/05/21 06:02:58;;;;;;;;;;;;;;;18.36;64.72;94916.09;5077149;28;1032;-56
2023/05/21 06:05:24;;;;;;;;;;;;;;;18.39;65.74;94918.38;5076869;28;1036;-55
2023/05/21 06:07:50;;;;;;;;;;;;;;;18.41;64.80;94923.59;5076704;28;1035;-55
2023/05/21 06:10:17;;;;;;;;;;;;;;;18.37;66.06;94916.94;5076573;28;1613;-55
2023/05/21 06:12:43;;;;;;;;;;;;;;;18.44;65.90;94915.00;5076567;28;1037;-56
2023/05/21 06:15:09;;;;;;;;;;;;;;;18.50;66.08;94906.88;5076634;28;1041;-56
2023/05/21 06:17:35;;;;;;;;;;;;;;;18.44;66.14;94907.75;5076668;28;1910;-56
2023/05/21 06:20:02;;;;;;;;;;;;;;;18.48;64.54;94914.38;5076665;28;1226;-56
2023/05/21 06:22:29;;;;;;;;;;;;;;;18.59;66.82;94917.44;5076433;28;1048;-56
2023/05/21 06:24:55;;;;;;;;;;;;;;;18.76;64.33;94912.34;5076673;28;951;-56
2023/05/21 06:27:21;;;;;;;;;;;;;;;18.76;65.29;94912.34;5076278;28;1129;-55
2023/05/21 06:29:47;;;;;;;;;;;;;;;18.82;63.96;94909.66;5076553;28;1044;-55
2023/05/21 06:32:13;;;;;;;;;;;;;;;18.88;63.47;94897.09;5076318;28;1090;-55
2023/05/21 06:34:39;;;;;;;;;;;;;;;18.80;63.41;94897.31;5076308;28;1117;-55
2023/05/21 06:37:06;;;;;;;;;;;;;;;18.79;65.84;94907.34;5076066;28;1995;-55
2023/05/21 06:39:32;;;;;;;;;;;;;;;18.77;65.48;94898.59;5076326;28;1236;-55
2023/05/21 06:41:58;;;;;;;;;;;;;;;18.88;64.14;94889.81;5069036;28;2019;-55
2023/05/21 06:44:24;;;;;;;;;;;;;;;19.08;61.97;94891.53;5067381;28;1935;-53
2023/05/21 06:46:50;;;;;;;;;;;;;;;19.38;64.01;94894.41;5076201;28;989;-53
2023/05/21 06:49:16;;;;;;;;;;;;;;;19.88;61.76;94891.66;5075914;28;1066;-53
2023/05/21 06:51:42;;;;;;;;;;;;;;;20.74;58.62;94888.94;5058178;28;1009;-55
2023/05/21 06:54:08;;;;;;;;;;;;;;;21.34;57.91;94881.75;5075896;28;1057;-55
2023/05/21 06:56:34;;;;;;;;;;;;;;;21.68;56.61;94890.19;5066604;28;1159;-55
2023/05/21 06:59:01;;;;;;;;;;;;;;;21.70;55.60;94879.91;5074913;28;1910;-54
2023/05/21 07:01:27;;;;;;;;;;;;;;;21.62;56.07;94884.63;5076012;28;1041;-53
2023/05/21 07:03:53;;;;;;;;;;;;;;;21.61;55.84;94877.56;5075883;28;1499;-53
2023/05/21 07:06:20;;;;;;;;;;;;;;;21.90;56.47;94879.53;5075873;28;982;-53
2023/05/21 07:08:48;;;;;;;;;;;;;;;22.08;54.42;94884.00;5075533;28;1644;-53
2023/05/21 07:11:14;;;;;;;;;;;;;;;21.88;53.51;94882.50;5075486;28;1077;-53
2023/05/21 07:13:40;;;;;;;;;;;;;;;22.03;54.14;94885.56;5075527;28;1057;-54
2023/05/21 07:16:06;;;;;;;;;;;;;;;21.69;54.56;94870.09;5057746;28;1061;-53
2023/05/21 07:18:33;;;;;;;;;;;;;;;21.43;54.82;94881.16;5075427;28;2411;-53
2023/05/21 07:20:59;;;;;;;;;;;;;;;21.20;54.22;94873.81;5075356;28;1022;-53
2023/05/21 07:23:25;;;;;;;;;;;;;;;21.18;54.13;94856.91;5075213;28;1062;-54
2023/05/21 07:25:51;;;;;;;;;;;;;;;21.35;54.79;94864.38;5075617;28;965;-54
2023/05/21 07:28:17;;;;;;;;;;;;;;;21.81;54.23;94870.91;5075379;28;1040;-55
2023/05/21 07:30:43;;;;;;;;;;;;;;;22.71;52.84;94872.25;5075531;28;1044;-54
2023/05/21 07:33:09;;;;;;;;;;;;;;;23.21;50.78;94872.59;5075319;28;1056;-54
2023/05/21 07:35:35;;;;;;;;;;;;;;;23.53;51.24;94873.66;5075112;28;1055;-55
2023/05/21 07:38:02;;;;;;;;;;;;;;;23.70;50.34;94861.94;5074936;28;2001;-55
2023/05/21 07:40:28;;;;;;;;;;;;;;;23.77;47.86;94865.28;5075329;28;1001;-53
2023/05/21 07:42:55;;;;;;;;;;;;;;;23.52;48.21;94866.56;5074793;28;1869;-54
2023/05/21 07:45:21;;;;;;;;;;;;;;;23.39;48.28;94872.34;5067773;28;1999;-53
2023/05/21 07:47:47;;;;;;;;;;;;;;;23.66;48.84;94869.78;5058977;28;2350;-53
2023/05/21 07:50:13;;;;;;;;;;;;;;;24.09;48.38;94861.94;5072808;28;974;-53
2023/05/21 07:52:39;;;;;;;;;;;;;;;24.51;47.80;94862.25;5058642;28;1049;-53
2023/05/21 07:55:06;;;;;;;;;;;;;;;24.52;46.89;94860.31;5054702;28;1117;-54
2023/05/21 07:57:32;;;;;;;;;;;;;;;23.80;46.66;94864.81;5054566;28;1990;-54
2023/05/21 07:59:58;;;;;;;;;;;;;;;23.40;46.31;94865.81;5054981;28;1038;-53
2023/05/21 08:02:24;;;;;;;;;;;;;;;23.80;47.41;94864.00;5054662;28;1029;-53
2023/05/21 08:04:51;;;;;;;;;;;;;;;23.89;47.76;94860.59;5054580;28;1042;-53
2023/05/21 08:07:18;;;;;;;;;;;;;;;23.84;46.35;94865.97;5054370;28;1009;-53
2023/05/21 08:09:44;;;;;;;;;;;;;;;23.27;43.23;94877.06;5066737;28;1416;-54
2023/05/21 08:12:14;;;;;;;;;;;;;;;23.36;42.43;94879.13;5074354;28;1046;-53
2023/05/21 08:14:40;;;;;;;;;;;;;;;23.55;41.56;94881.63;5074360;28;1566;-53
2023/05/21 08:17:10;;;;;;;;;;;;;;;23.37;40.86;94883.53;5074188;28;1902;-53
2023/05/21 08:19:36;;;;;;;;;;;;;;;23.48;39.10;94886.41;5074557;28;982;-53
2023/05/21 08:22:02;;;;;;;;;;;;;;;23.55;38.77;94892.53;5074057;28;949;-53
2023/05/21 08:24:28;;;;;;;;;;;;;;;24.06;38.99;94885.13;5044627;28;1950;-53
2023/05/21 08:26:54;;;;;;;;;;;;;;;24.12;38.28;94897.75;5049572;28;949;-53
2023/05/21 08:29:21;;;;;;;;;;;;;;;24.24;36.75;94905.00;5054179;28;982;-53
2023/05/21 08:31:47;;;;;;;;;;;;;;;24.34;37.03;94908.72;5054335;28;958;-53
2023/05/21 08:34:13;;;;;;;;;;;;;;;24.60;36.47;94911.78;5060181;28;981;-53
2023/05/21 08:36:42;;;;;;;;;;;;;;;24.72;37.82;94908.94;5073856;28;954;-53
2023/05/21 08:39:08;;;;;;;;;;;;;;;24.78;35.74;94907.91;5069579;28;1996;-53
2023/05/21 08:41:34;;;;;;;;;;;;;;;25.29;35.69;94913.13;5040862;28;1041;-53
2023/05/21 08:44:01;;;;;;;;;;;;;;;24.92;35.85;94913.78;5053781;28;1078;-53
2023/05/21 08:46:32;;;;;;;;;;;;;;;24.07;37.02;94910.53;5054046;28;973;-53
2023/05/21 08:49:01;;;;;;;;;;;;;;;23.58;38.43;94911.13;5053699;28;1030;-54
2023/05/21 08:51:27;;;;;;;;;;;;;;;23.16;39.64;94915.09;5058742;28;2030;-54
2023/05/21 08:53:54;;;;;;;;;;;;;;;23.00;39.33;94910.38;5056073;28;957;-53
2023/05/21 08:56:21;;;;;;;;;;;;;;;23.13;39.49;94910.09;5059467;28;1981;-53
2023/05/21 08:58:47;;;;;;;;;;;;;;;23.10;39.34;94924.22;5073552;28;1898;-53
2023/05/21 09:01:13;;;;;;;;;;;;;;;23.18;39.77;94910.22;5073368;28;1018;-53
2023/05/21 09:03:39;;;;;;;;;;;;;;;23.10;40.18;94921.50;5073418;28;930;-53
2023/05/21 09:06:09;;;;;;;;;;;;;;;22.97;40.69;94917.16;5073320;28;1046;-53
2023/05/21 09:08:37;;;;;;;;;;;;;;;22.90;40.90;94932.00;5073619;28;1552;-53
2023/05/21 09:11:03;;;;;;;;;;;;;;;22.55;40.26;94930.22;5073750;28;1033;-53
2023/05/21 09:13:31;;;;;;;;;;;;;;;22.32;40.94;94936.56;5073232;28;1249;-53
2023/05/21 09:15:57;;;;;;;;;;;;;;;22.01;40.98;94931.25;5072941;28;1091;-53
2023/05/21 09:18:26;;;;;;;;;;;;;;;21.87;40.99;94931.72;5062657;28;2025;-53
2023/05/21 09:20:52;;;;;;;;;;;;;;;21.61;39.18;94942.84;5060506;28;1050;-54
2023/05/21 09:23:18;;;;;;;;;;;;;;;21.59;39.73;94938.72;5067662;28;1022;-53
2023/05/21 09:25:46;;;;;;;;;;;;;;;21.58;40.03;94937.03;5041143;28;1033;-53
2023/05/21 09:28:13;;;;;;;;;;;;;;;21.55;40.05;94940.22;5053106;28;1041;-53
2023/05/21 09:30:43;;;;;;;;;;;;;;;21.50;40.03;94931.94;5053231;28;1048;-53
2023/05/21 09:33:10;;;;;;;;;;;;;;;21.72;41.25;94929.47;5053067;28;1097;-53
2023/05/21 09:35:37;;;;;;;;;;;;;;;21.74;41.58;94930.06;5053035;28;1032;-53
2023/05/21 09:38:07;;;;;;;;;;;;;;;21.71;41.51;94930.53;5052692;28;1995;-53
2023/05/21 09:40:33;;;;;;;;;;;;;;;21.73;42.04;94929.22;5055501;28;1045;-53
2023/05/21 09:42:59;;;;;;;;;;;;;;;21.68;41.95;94925.56;5035256;28;1196;-53
2023/05/21 09:45:27;;;;;;;;;;;;;;;22.17;41.32;94923.41;5068634;28;961;-53
2023/05/21 09:47:53;;;;;;;;;;;;;;;22.58;41.66;94921.56;5054702;28;1194;-53
2023/05/21 09:50:21;;;;;;;;;;;;;;;22.68;39.99;94931.84;5052967;28;1029;-53
2023/05/21 09:52:49;;;;;;;;;;;;;;;22.69;39.13;94934.34;5053280;28;1041;-53
2023/05/21 09:55:15;;;;;;;;;;;;;;;23.01;39.68;94939.28;5052856;28;1042;-53
2023/05/21 09:57:42;;;;;;;;;;;;;;;23.13;39.50;94926.47;5052847;28;1898;-53
2023/05/21 10:00:16;;;;;;;;;;;;;;;23.02;39.21;94923.78;5060920;28;970;-53
2023/05/21 10:02:46;;;;;;;;;;;;;;;22.80;38.81;94927.16;5072982;28;1026;-53
2023/05/21 10:05:13;;;;;;;;;;;;;;;22.57;39.59;94923.44;5072728;28;1952;-53
2023/05/21 10:08:02;;;;;;;;;;;;;;;23.12;40.00;94918.53;5073136;28;1000;-53
2023/05/21 10:10:31;;;;;;;;;;;;;;;23.13;39.46;94912.84;5064230;28;2267;-53
2023/05/21 10:12:59;;;;;;;;;;;;;;;23.39;40.52;94913.25;5072245;28;993;-53
2023/05/21 10:15:26;;;;;;;;;;;;;;;23.36;38.93;94913.78;5072341;28;1040;-53
2023/05/21 10:17:54;;;;;;;;;;;;;;;23.24;39.33;94910.28;5072995;28;1898;-53
2023/05/21 10:20:21;;;;;;;;;;;;;;;23.52;38.95;94907.50;5065217;28;1828;-53
2023/05/21 10:22:49;;;;;;;;;;;;;;;24.04;39.76;94900.94;5055948;28;962;-53
2023/05/21 10:25:15;;;;;;;;;;;;;;;24.55;38.26;94898.09;5052519;28;1036;-53
2023/05/21 10:27:41;;;;;;;;;;;;;;;24.48;37.04;94905.59;5052869;28;1149;-52
2023/05/21 10:30:08;;;;;;;;;;;;;;;24.63;37.42;94903.09;5052883;28;1065;-53
2023/05/21 10:32:34;;;;;;;;;;;;;;;24.21;37.75;94908.25;5060484;28;2598;-52
2023/05/21 10:35:01;;;;;;;;;;;;;;;23.72;37.31;94909.72;5062222;28;1726;-53
2023/05/21 10:37:27;;;;;;;;;;;;;;;23.37;37.54;94909.97;5057746;28;1906;-53
2023/05/21 10:39:54;;;;;;;;;;;;;;;23.25;38.70;94903.75;5076425;28;984;-52
2023/05/21 10:42:20;;;;;;;;;;;;;;;22.94;37.82;94914.91;5066499;28;1028;-53
2023/05/21 10:45:12;;;;;;;;;;;;;;;22.76;37.25;94906.94;5075944;28;1120;-53
2023/05/21 10:47:57;;;;;;;;;;;;;;;23.15;39.99;94901.69;5076371;28;1056;-53
2023/05/21 10:50:45;;;;;;;;;;;;;;;23.35;38.14;94901.19;5062425;28;1032;-54
2023/05/21 10:53:11;;;;;;;;;;;;;;;23.31;39.71;94879.03;5056678;28;1858;-53
2023/05/21 10:55:46;;;;;;;;;;;;;;;23.37;38.75;94877.22;5055869;28;1199;-53
2023/05/21 10:58:21;;;;;;;;;;;;;;;23.46;38.59;94880.38;5073189;28;1914;-53
2023/05/21 11:00:48;;;;;;;;;;;;;;;23.19;38.95;94886.47;5075736;28;1066;-53
2023/05/21 11:03:15;;;;;;;;;;;;;;;22.98;39.35;94883.38;5067783;28;1042;-52
2023/05/21 11:05:54;;;;;;;;;;;;;;;23.35;39.01;94882.94;5075837;28;1060;-53
2023/05/21 11:08:21;;;;;;;;;;;;;;;23.82;38.81;94870.84;5062635;28;1256;-53
2023/05/21 11:10:50;;;;;;;;;;;;;;;23.89;37.15;94879.69;5075794;28;1192;-53
2023/05/21 11:13:18;;;;;;;;;;;;;;;24.00;38.35;94871.63;5075511;28;958;-53
2023/05/21 11:15:56;;;;;;;;;;;;;;;24.06;36.43;94878.84;5075402;28;961;-53
2023/05/21 11:18:34;;;;;;;;;;;;;;;24.21;36.26;94881.78;5075619;28;1989;-54
2023/05/21 11:21:02;;;;;;;;;;;;;;;23.82;35.33;94865.41;5075711;28;1037;-54
2023/05/21 11:23:47;;;;;;;;;;;;;;;23.49;35.80;94877.97;5075375;28;1048;-54
2023/05/21 11:26:20;;;;;;;;;;;;;;;23.31;37.67;94864.59;5075544;28;1037;-54
2023/05/21 11:28:49;;;;;;;;;;;;;;;23.33;36.85;94868.69;5070705;28;2040;-54
2023/05/21 11:31:21;;;;;;;;;;;;;;;23.36;36.10;94867.41;5069158;28;1896;-54
2023/05/21 11:33:47;;;;;;;;;;;;;;;23.07;37.10;94858.44;5055142;28;1066;-54
2023/05/21 11:36:13;;;;;;;;;;;;;;;22.88;35.63;94864.13;5055158;28;1022;-54
2023/05/21 11:38:39;;;;;;;;;;;;;;;22.88;37.19;94861.38;5055001;28;2068;-54
2023/05/21 11:41:08;;;;;;;;;;;;;;;22.87;37.19;94857.00;5055282;28;1064;-54
2023/05/21 11:43:38;;;;;;;;;;;;;;;22.83;38.31;94844.09;5071122;28;1097;-54
2023/05/21 11:46:05;;;;;;;;;;;;;;;22.84;38.56;94859.38;5075096;28;1076;-54
2023/05/21 11:48:31;;;;;;;;;;;;;;;22.77;37.51;94849.47;5075090;28;1001;-54
2023/05/21 11:50:57;;;;;;;;;;;;;;;22.78;37.88;94848.41;5075160;28;970;-53
2023/05/21 11:53:24;;;;;;;;;;;;;;;22.98;38.33;94836.19;5074710;28;1648;-53
2023/05/21 11:55:56;;;;;;;;;;;;;;;23.09;37.90;94837.25;5075131;28;1212;-54
2023/05/21 11:58:22;;;;;;;;;;;;;;;23.03;38.10;94840.91;5057200;28;1972;-54
2023/05/21 12:00:49;;;;;;;;;;;;;;;22.84;37.92;94840.28;5037010;28;1193;-54
2023/05/21 12:03:16;;;;;;;;;;;;;;;22.64;36.74;94838.88;5054515;28;973;-54
2023/05/21 12:05:46;;;;;;;;;;;;;;;22.73;37.75;94836.59;5054473;28;1092;-54
2023/05/21 12:08:12;;;;;;;;;;;;;;;22.55;37.56;94834.88;5059947;28;2081;-54
2023/05/21 12:10:41;;;;;;;;;;;;;;;22.36;37.25;94843.22;5054547;28;1895;-54
2023/05/21 12:13:07;;;;;;;;;;;;;;;22.39;38.06;94841.94;5065282;28;1909;-54
2023/05/21 12:15:33;;;;;;;;;;;;;;;22.33;36.93;94845.59;5054647;28;1061;-54
2023/05/21 12:17:59;;;;;;;;;;;;;;;22.31;35.42;94845.88;5054217;28;1902;-54
2023/05/21 12:20:26;;;;;;;;;;;;;;;22.36;37.61;94831.50;5054132;28;1037;-54
2023/05/21 12:22:53;;;;;;;;;;;;;;;22.33;36.30;94841.00;5054242;28;1201;-54
2023/05/21 12:25:19;;;;;;;;;;;;;;;22.39;37.10;94842.75;5054334;28;1029;-54
2023/05/21 12:27:46;;;;;;;;;;;;;;;22.29;36.25;94839.00;5055161;28;950;-54
2023/05/21 12:30:12;;;;;;;;;;;;;;;22.29;36.92;94834.41;5074250;28;974;-54
2023/05/21 12:32:45;;;;;;;;;;;;;;;22.27;37.64;94833.81;5054132;28;1026;-54
2023/05/21 12:35:29;;;;;;;;;;;;;;;22.16;37.80;94832.75;5054201;28;998;-54
2023/05/21 12:37:55;;;;;;;;;;;;;;;22.09;39.53;94823.06;5053945;28;1995;-54
2023/05/21 12:40:33;;;;;;;;;;;;;;;22.00;38.59;94825.31;5053844;28;1097;-54
2023/05/21 12:42:59;;;;;;;;;;;;;;;22.08;38.79;94824.13;5053930;28;1290;-54
2023/05/21 12:45:25;;;;;;;;;;;;;;;22.14;39.08;94825.88;5053683;28;1116;-54
2023/05/21 12:47:54;;;;;;;;;;;;;;;22.14;38.61;94829.44;5054052;28;1029;-53
2023/05/21 12:50:20;;;;;;;;;;;;;;;22.26;38.69;94832.16;5053658;28;1275;-54
2023/05/21 12:52:47;;;;;;;;;;;;;;;22.22;39.26;94829.03;5054005;28;1025;-54
2023/05/21 12:55:13;;;;;;;;;;;;;;;22.42;38.02;94830.53;5057503;28;2036;-54
2023/05/21 12:57:40;;;;;;;;;;;;;;;22.54;38.69;94835.97;5065335;28;1906;-54